sensor_id;sensor_type;location;lat;lon;timestamp;P1;durP1;ratioP1;P2;durP2;ratioP2
12788;SDS011;6458;42.710;23.192;2023-12-20T17:59:07;68.10;;;36.43;;
12788;SDS011;6458;42.710;23.192;2023-12-20T18:01:34;66.50;;;35.60;;
12788;SDS011;6458;42.710;23.192;2023-12-20T18:04:04;76.17;;;41.00;;
12788;SDS011;6458;42.710;23.192;2023-12-20T18:06:30;65.97;;;33.97;;
12788;SDS011;6458;42.710;23.192;2023-12-20T18:08:57;77.63;;;42.30;;
12788;SDS011;6458;42.710;23.192;2023-12-20T18:11:24;91.40;;;45.73;;
12788;SDS011;6458;42.710;23.192;2023-12-20T18:13:50;97.43;;;49.47;;
12788;SDS011;6458;42.710;23.192;2023-12-20T18:16:19;105.50;;;50.23;;
12788;SDS011;6458;42.710;23.192;2023-12-20T18:18:45;85.90;;;46.90;;
12788;SDS011;6458;42.710;23.192;2023-12-20T18:21:15;76.33;;;42.70;;
12788;SDS011;6458;42.710;23.192;2023-12-20T18:23:43;68.57;;;33.43;;
12788;SDS011;6458;42.710;23.192;2023-12-20T18:26:10;103.43;;;47.13;;
12788;SDS011;6458;42.710;23.192;2023-12-20T18:28:36;71.40;;;38.83;;
12788;SDS011;6458;42.710;23.192;2023-12-20T18:31:03;63.93;;;35.33;;
12788;SDS011;6458;42.710;23.192;2023-12-20T18:33:31;64.73;;;33.43;;
12788;SDS011;6458;42.710;23.192;2023-12-20T18:36:00;50.13;;;30.67;;
12788;SDS011;6458;42.710;23.192;2023-12-20T18:38:27;53.80;;;29.53;;
12788;SDS011;6458;42.710;23.192;2023-12-20T18:40:55;46.97;;;26.63;;
12788;SDS011;6458;42.710;23.192;2023-12-20T18:43:22;66.77;;;33.10;;
12788;SDS011;6458;42.710;23.192;2023-12-20T18:45:50;54.77;;;29.80;;
12788;SDS011;6458;42.710;23.192;2023-12-20T18:48:17;65.27;;;30.30;;
12788;SDS011;6458;42.710;23.192;2023-12-20T18:50:46;62.73;;;33.00;;
12788;SDS011;6458;42.710;23.192;2023-12-20T18:53:13;69.97;;;35.27;;
12788;SDS011;6458;42.710;23.192;2023-12-20T18:55:41;72.53;;;38.73;;
12788;SDS011;6458;42.710;23.192;2023-12-20T18:58:08;82.33;;;39.43;;
12788;SDS011;6458;42.710;23.192;2023-12-20T19:00:35;83.13;;;41.10;;
12788;SDS011;6458;42.710;23.192;2023-12-20T19:03:03;102.50;;;50.50;;
12788;SDS011;6458;42.710;23.192;2023-12-20T19:05:30;107.97;;;51.47;;
12788;SDS011;6458;42.710;23.192;2023-12-20T19:08:01;124.93;;;61.13;;
12788;SDS011;6458;42.710;23.192;2023-12-20T19:10:28;110.00;;;54.57;;
12788;SDS011;6458;42.710;23.192;2023-12-20T19:12:59;135.35;;;68.88;;
12788;SDS011;6458;42.710;23.192;2023-12-20T19:15:26;131.47;;;66.60;;
12788;SDS011;6458;42.710;23.192;2023-12-20T19:17:52;123.00;;;59.73;;
12788;SDS011;6458;42.710;23.192;2023-12-20T19:20:19;126.00;;;58.73;;
12788;SDS011;6458;42.710;23.192;2023-12-20T19:22:48;153.27;;;85.37;;
12788;SDS011;6458;42.710;23.192;2023-12-20T19:25:16;153.10;;;91.03;;
12788;SDS011;6458;42.710;23.192;2023-12-20T19:27:43;269.73;;;95.23;;
12788;SDS011;6458;42.710;23.192;2023-12-20T19:30:10;123.00;;;69.80;;
12788;SDS011;6458;42.710;23.192;2023-12-20T19:32:37;116.30;;;68.43;;
12788;SDS011;6458;42.710;23.192;2023-12-20T19:35:04;119.13;;;68.67;;
12788;SDS011;6458;42.710;23.192;2023-12-20T19:37:31;149.60;;;87.17;;
12788;SDS011;6458;42.710;23.192;2023-12-20T19:39:57;146.97;;;82.27;;
12788;SDS011;6458;42.710;23.192;2023-12-20T19:42:26;150.07;;;89.63;;
12788;SDS011;6458;42.710;23.192;2023-12-20T19:44:53;607.53;;;151.47;;
12788;SDS011;6458;42.710;23.192;2023-12-20T19:47:20;796.27;;;183.23;;
12788;SDS011;6458;42.710;23.192;2023-12-20T19:49:47;341.33;;;137.43;;
12788;SDS011;6458;42.710;23.192;2023-12-20T19:52:13;305.57;;;127.50;;
12788;SDS011;6458;42.710;23.192;2023-12-20T19:54:40;217.60;;;113.97;;
12788;SDS011;6458;42.710;23.192;2023-12-20T19:57:08;208.80;;;116.03;;
12788;SDS011;6458;42.710;23.192;2023-12-20T19:59:36;151.17;;;89.17;;
12788;SDS011;6458;42.710;23.192;2023-12-20T20:02:03;157.43;;;93.30;;
12788;SDS011;6458;42.710;23.192;2023-12-20T20:04:30;146.40;;;81.63;;
12788;SDS011;6458;42.710;23.192;2023-12-20T20:06:56;155.00;;;84.15;;
12788;SDS011;6458;42.710;23.192;2023-12-20T20:09:23;146.10;;;87.83;;
12788;SDS011;6458;42.710;23.192;2023-12-20T20:11:50;125.53;;;70.80;;
12788;SDS011;6458;42.710;23.192;2023-12-20T20:14:16;127.67;;;73.17;;
12788;SDS011;6458;42.710;23.192;2023-12-20T20:16:45;130.83;;;76.90;;
12788;SDS011;6458;42.710;23.192;2023-12-20T20:19:13;140.40;;;85.57;;
12788;SDS011;6458;42.710;23.192;2023-12-20T20:21:40;86.70;;;42.40;;
12788;SDS011;6458;42.710;23.192;2023-12-20T20:24:07;70.83;;;34.40;;
12788;SDS011;6458;42.710;23.192;2023-12-20T20:26:33;68.20;;;38.97;;
12788;SDS011;6458;42.710;23.192;2023-12-20T20:29:00;83.90;;;41.77;;
12788;SDS011;6458;42.710;23.192;2023-12-20T20:31:30;82.27;;;45.83;;
12788;SDS011;6458;42.710;23.192;2023-12-20T20:34:00;110.30;;;52.63;;
12788;SDS011;6458;42.710;23.192;2023-12-20T20:36:27;132.37;;;59.67;;
12788;SDS011;6458;42.710;23.192;2023-12-20T20:38:54;126.13;;;62.17;;
12788;SDS011;6458;42.710;23.192;2023-12-20T20:41:20;129.70;;;60.53;;
12788;SDS011;6458;42.710;23.192;2023-12-20T20:43:47;130.80;;;61.97;;
12788;SDS011;6458;42.710;23.192;2023-12-20T20:46:14;112.47;;;53.50;;
12788;SDS011;6458;42.710;23.192;2023-12-20T20:48:42;118.83;;;53.10;;
12788;SDS011;6458;42.710;23.192;2023-12-20T20:51:11;107.07;;;50.90;;
12788;SDS011;6458;42.710;23.192;2023-12-20T20:53:37;101.27;;;48.93;;
12788;SDS011;6458;42.710;23.192;2023-12-20T20:56:05;89.83;;;47.03;;
12788;SDS011;6458;42.710;23.192;2023-12-20T20:58:31;94.77;;;44.07;;
12788;SDS011;6458;42.710;23.192;2023-12-20T21:00:59;90.97;;;43.60;;
12788;SDS011;6458;42.710;23.192;2023-12-20T21:03:25;99.03;;;47.00;;
12788;SDS011;6458;42.710;23.192;2023-12-20T21:05:52;111.13;;;57.57;;
12788;SDS011;6458;42.710;23.192;2023-12-20T21:08:23;105.87;;;51.40;;
12788;SDS011;6458;42.710;23.192;2023-12-20T21:10:49;108.10;;;51.50;;
12788;SDS011;6458;42.710;23.192;2023-12-20T21:13:22;105.50;;;50.53;;
12788;SDS011;6458;42.710;23.192;2023-12-20T21:15:49;193.50;;;101.00;;
12788;SDS011;6458;42.710;23.192;2023-12-20T21:18:15;348.27;;;108.17;;
12788;SDS011;6458;42.710;23.192;2023-12-20T21:20:42;371.43;;;110.13;;
12788;SDS011;6458;42.710;23.192;2023-12-20T21:23:10;200.52;;;101.28;;
12788;SDS011;6458;42.710;23.192;2023-12-20T21:25:38;155.47;;;92.43;;
12788;SDS011;6458;42.710;23.192;2023-12-20T21:28:05;148.50;;;88.82;;
12788;SDS011;6458;42.710;23.192;2023-12-20T21:30:31;164.30;;;96.30;;
12788;SDS011;6458;42.710;23.192;2023-12-20T21:32:59;159.87;;;92.43;;
12788;SDS011;6458;42.710;23.192;2023-12-20T21:35:26;151.35;;;90.40;;
12788;SDS011;6458;42.710;23.192;2023-12-20T21:37:52;102.15;;;49.90;;
12788;SDS011;6458;42.710;23.192;2023-12-20T21:40:19;87.43;;;43.88;;
12788;SDS011;6458;42.710;23.192;2023-12-20T21:42:47;85.00;;;44.40;;
12788;SDS011;6458;42.710;23.192;2023-12-20T21:45:14;30.60;;;17.77;;
12788;SDS011;6458;42.710;23.192;2023-12-20T21:47:41;72.97;;;37.53;;
12788;SDS011;6458;42.710;23.192;2023-12-20T21:50:08;73.77;;;39.10;;
12788;SDS011;6458;42.710;23.192;2023-12-20T21:52:35;66.77;;;34.10;;
12788;SDS011;6458;42.710;23.192;2023-12-20T21:55:02;58.23;;;31.10;;
12788;SDS011;6458;42.710;23.192;2023-12-20T21:57:28;37.73;;;22.47;;
12788;SDS011;6458;42.710;23.192;2023-12-20T21:59:57;25.10;;;13.93;;
12788;SDS011;6458;42.710;23.192;2023-12-20T22:02:24;28.43;;;13.67;;
12788;SDS011;6458;42.710;23.192;2023-12-20T22:04:50;28.97;;;14.40;;
12788;SDS011;6458;42.710;23.192;2023-12-20T22:07:17;16.70;;;9.80;;
12788;SDS011;6458;42.710;23.192;2023-12-20T22:09:44;20.10;;;10.47;;
12788;SDS011;6458;42.710;23.192;2023-12-20T22:12:11;23.80;;;11.00;;
12788;SDS011;6458;42.710;23.192;2023-12-20T22:14:37;10.73;;;8.10;;
12788;SDS011;6458;42.710;23.192;2023-12-20T22:17:06;17.37;;;9.63;;
12788;SDS011;6458;42.710;23.192;2023-12-20T22:19:32;9.43;;;8.47;;
12788;SDS011;6458;42.710;23.192;2023-12-20T22:21:59;12.77;;;7.43;;
12788;SDS011;6458;42.710;23.192;2023-12-20T22:24:26;9.07;;;7.57;;
12788;SDS011;6458;42.710;23.192;2023-12-20T22:26:53;9.43;;;6.03;;
12788;SDS011;6458;42.710;23.192;2023-12-20T22:29:20;10.23;;;7.40;;
12788;SDS011;6458;42.710;23.192;2023-12-20T22:31:48;8.40;;;6.83;;
12788;SDS011;6458;42.710;23.192;2023-12-20T22:34:16;55.40;;;26.27;;
12788;SDS011;6458;42.710;23.192;2023-12-20T22:36:43;43.93;;;23.23;;
12788;SDS011;6458;42.710;23.192;2023-12-20T22:39:10;53.23;;;27.40;;
12788;SDS011;6458;42.710;23.192;2023-12-20T22:41:36;41.97;;;22.23;;
12788;SDS011;6458;42.710;23.192;2023-12-20T22:44:04;55.90;;;29.80;;
12788;SDS011;6458;42.710;23.192;2023-12-20T22:46:31;35.20;;;16.77;;
12788;SDS011;6458;42.710;23.192;2023-12-20T22:48:58;13.63;;;8.33;;
12788;SDS011;6458;42.710;23.192;2023-12-20T22:51:27;55.07;;;29.87;;
12788;SDS011;6458;42.710;23.192;2023-12-20T22:53:55;64.13;;;31.40;;
12788;SDS011;6458;42.710;23.192;2023-12-20T22:56:22;27.70;;;14.90;;
12788;SDS011;6458;42.710;23.192;2023-12-20T22:58:50;10.77;;;7.10;;
12788;SDS011;6458;42.710;23.192;2023-12-20T23:01:17;13.93;;;5.90;;
12788;SDS011;6458;42.710;23.192;2023-12-20T23:03:44;8.53;;;6.07;;
12788;SDS011;6458;42.710;23.192;2023-12-20T23:06:11;8.83;;;6.43;;
12788;SDS011;6458;42.710;23.192;2023-12-20T23:08:39;9.67;;;6.03;;
12788;SDS011;6458;42.710;23.192;2023-12-20T23:11:05;7.60;;;5.77;;
12788;SDS011;6458;42.710;23.192;2023-12-20T23:13:32;8.90;;;6.40;;
12788;SDS011;6458;42.710;23.192;2023-12-20T23:16:01;9.73;;;5.83;;
12788;SDS011;6458;42.710;23.192;2023-12-20T23:18:28;10.30;;;6.53;;
12788;SDS011;6458;42.710;23.192;2023-12-20T23:20:55;9.87;;;6.33;;
12788;SDS011;6458;42.710;23.192;2023-12-20T23:23:22;8.50;;;6.63;;
12788;SDS011;6458;42.710;23.192;2023-12-20T23:25:51;7.20;;;6.17;;
12788;SDS011;6458;42.710;23.192;2023-12-20T23:28:17;9.10;;;5.70;;
12788;SDS011;6458;42.710;23.192;2023-12-20T23:30:44;7.53;;;5.30;;
12788;SDS011;6458;42.710;23.192;2023-12-20T23:33:11;10.30;;;6.53;;
12788;SDS011;6458;42.710;23.192;2023-12-20T23:35:40;6.50;;;5.27;;
12788;SDS011;6458;42.710;23.192;2023-12-20T23:38:07;8.03;;;5.83;;
12788;SDS011;6458;42.710;23.192;2023-12-20T23:40:35;7.60;;;6.13;;
12788;SDS011;6458;42.710;23.192;2023-12-20T23:43:03;11.30;;;7.00;;
12788;SDS011;6458;42.710;23.192;2023-12-20T23:45:30;12.60;;;7.80;;
12788;SDS011;6458;42.710;23.192;2023-12-20T23:47:57;11.40;;;6.93;;
12788;SDS011;6458;42.710;23.192;2023-12-20T23:50:24;14.27;;;8.07;;
12788;SDS011;6458;42.710;23.192;2023-12-20T23:52:51;12.67;;;9.37;;
12788;SDS011;6458;42.710;23.192;2023-12-20T23:55:18;12.13;;;8.50;;
12788;SDS011;6458;42.710;23.192;2023-12-20T23:57:44;11.17;;;8.80;;
